Time;durP1;ratioP1;P1;durP2;ratioP2;P2;SDS_P1;SDS_P2;PMS_P1;PMS_P2;Temp;Humidity;BMP_temperature;BMP_pressure;BME280_temperature;BME280_humidity;BME280_pressure;Samples;Min_cycle;Max_cycle;Signal;HPM_P1;HPM_P2
2021/09/14 00:01:40;;;;;;;2.93;2.63;;;21.50;99.90;;;;;;5007932;28;20452;-76
2021/09/14 00:04:09;;;;;;;2.50;2.30;;;21.50;99.90;;;;;;5010600;28;20460;-77
2021/09/14 00:06:40;;;;;;;3.80;3.00;;;21.50;99.90;;;;;;5010600;28;20902;-76
2021/09/14 00:09:09;;;;;;;3.70;3.40;;;21.50;99.90;;;;;;5007707;28;20457;-75
2021/09/14 00:11:39;;;;;;;3.50;2.87;;;21.50;99.90;;;;;;5006645;28;20445;-76
2021/09/14 00:14:07;;;;;;;3.23;3.03;;;21.50;99.90;;;;;;5009771;28;20469;-76
2021/09/14 00:16:37;;;;;;;3.00;2.80;;;21.50;99.90;;;;;;5010617;28;20457;-77
2021/09/14 00:19:05;;;;;;;3.17;2.97;;;21.40;99.90;;;;;;5010008;28;20469;-76
2021/09/14 00:21:33;;;;;;;3.07;2.80;;;21.40;99.90;;;;;;5008135;28;20512;-77
2021/09/14 00:24:01;;;;;;;3.23;3.03;;;21.40;99.90;;;;;;5006920;28;20507;-77
2021/09/14 00:26:29;;;;;;;3.30;3.00;;;21.30;99.90;;;;;;5010543;28;20507;-77
2021/09/14 00:28:57;;;;;;;2.90;2.70;;;21.30;99.90;;;;;;5010269;28;20441;-77
2021/09/14 00:31:26;;;;;;;3.57;3.27;;;21.30;1.00;;;;;;5009309;28;21279;-76
2021/09/14 00:33:55;;;;;;;3.67;3.37;;;21.30;1.00;;;;;;5010666;28;20899;-76
2021/09/14 00:36:23;;;;;;;3.40;3.20;;;21.30;1.00;;;;;;5010102;28;20453;-76
2021/09/14 00:38:51;;;;;;;3.87;3.57;;;21.20;1.00;;;;;;5009978;28;20993;-77
2021/09/14 00:41:20;;;;;;;3.80;2.50;;;21.30;1.00;;;;;;5009615;28;20989;-77
2021/09/14 00:43:56;;;;;;;4.70;2.97;;;21.30;1.00;;;;;;5009920;28;20466;-76
2021/09/14 00:46:24;;;;;;;3.00;2.70;;;21.20;1.00;;;;;;5010278;28;20457;-77
2021/09/14 00:48:52;;;;;;;3.40;3.10;;;21.20;1.00;;;;;;5010125;28;21012;-77
2021/09/14 00:51:22;;;;;;;3.63;3.40;;;21.10;1.00;;;;;;5009901;28;20434;-77
2021/09/14 00:53:51;;;;;;;3.10;2.90;;;21.10;99.90;;;;;;5010189;28;20478;-77
2021/09/14 00:56:19;;;;;;;2.87;2.67;;;21.10;1.00;;;;;;5009860;28;21034;-76
2021/09/14 00:58:47;;;;;;;3.97;3.10;;;21.10;1.00;;;;;;5005909;28;20478;-74
2021/09/14 01:01:16;;;;;;;3.40;2.77;;;21.10;1.00;;;;;;5008398;28;20523;-76
2021/09/14 01:03:44;;;;;;;3.30;3.00;;;21.10;1.00;;;;;;5007396;28;20921;-77
2021/09/14 01:06:13;;;;;;;3.50;3.20;;;21.00;1.00;;;;;;5009916;28;20990;-76
2021/09/14 01:08:43;;;;;;;2.73;2.53;;;21.00;1.00;;;;;;5002217;28;20786;-76
2021/09/14 01:11:11;;;;;;;4.77;3.00;;;21.10;1.00;;;;;;5009312;28;20458;-76
2021/09/14 01:13:40;;;;;;;3.90;3.30;;;21.10;1.00;;;;;;5009395;28;20817;-77
2021/09/14 01:16:11;;;;;;;3.20;2.90;;;21.10;1.00;;;;;;5009832;28;20519;-76
2021/09/14 01:18:40;;;;;;;3.27;3.00;;;21.00;1.00;;;;;;5009090;28;20461;-76
2021/09/14 01:21:08;;;;;;;3.43;3.10;;;21.00;1.00;;;;;;4996205;28;20583;-76
2021/09/14 01:23:37;;;;;;;3.13;2.90;;;21.00;1.00;;;;;;4992582;28;20882;-77
2021/09/14 01:26:05;;;;;;;3.40;3.13;;;21.00;1.00;;;;;;5006069;28;20457;-77
2021/09/14 01:28:34;;;;;;;3.10;2.90;;;20.90;1.00;;;;;;5009578;28;20445;-77
2021/09/14 01:31:02;;;;;;;5.13;3.17;;;20.90;1.00;;;;;;5007465;28;20453;-76
2021/09/14 01:33:30;;;;;;;3.07;2.87;;;20.90;1.00;;;;;;5008830;28;20584;-76
2021/09/14 01:35:58;;;;;;;4.90;2.90;;;20.90;1.00;;;;;;5007559;28;20499;-77
2021/09/14 01:38:27;;;;;;;3.20;3.00;;;20.90;1.00;;;;;;5008215;28;20483;-77
2021/09/14 01:40:56;;;;;;;3.93;3.63;;;20.90;1.00;;;;;;5006951;28;20434;-78
2021/09/14 01:43:25;;;;;;;3.40;2.83;;;20.90;1.00;;;;;;5008839;28;20473;-78
2021/09/14 01:45:53;;;;;;;4.87;4.40;;;20.80;1.00;;;;;;5009179;28;20458;-78
2021/09/14 01:48:21;;;;;;;3.20;2.80;;;20.80;1.00;;;;;;5009067;28;20457;-78
2021/09/14 01:50:49;;;;;;;4.10;2.70;;;20.80;1.00;;;;;;5007804;28;20789;-76
2021/09/14 01:53:17;;;;;;;2.63;2.43;;;20.80;1.00;;;;;;5008542;28;20749;-77
2021/09/14 01:55:46;;;;;;;3.30;3.00;;;20.80;1.00;;;;;;5008749;28;20519;-76
2021/09/14 01:58:15;;;;;;;3.20;3.00;;;20.80;1.00;;;;;;5002623;28;20834;-76
2021/09/14 02:00:49;;;;;;;3.50;3.20;;;20.70;1.00;;;;;;5004433;28;20457;-76
2021/09/14 02:03:24;;;;;;;3.20;3.00;;;20.70;1.00;;;;;;5008062;28;21014;-78
2021/09/14 02:42:37;;;;;;;3.97;3.10;;;20.50;1.00;;;;;;5043005;28;21068;-77
2021/09/14 02:59:00;;;;;;;19.83;10.80;;;20.30;1.00;;;;;;5045487;28;21042;-77
2021/09/14 03:01:28;;;;;;;12.80;7.90;;;20.30;1.00;;;;;;5077671;28;20471;-77
2021/09/14 03:03:57;;;;;;;10.50;5.40;;;20.40;1.00;;;;;;5075367;28;20481;-77
2021/09/14 03:06:25;;;;;;;5.33;4.67;;;20.40;1.00;;;;;;5062707;28;20447;-78
2021/09/14 03:08:53;;;;;;;6.37;4.03;;;20.40;1.00;;;;;;5060776;28;20474;-75
2021/09/14 03:11:21;;;;;;;4.13;3.67;;;20.30;1.00;;;;;;5058865;28;21004;-78
2021/09/14 03:13:49;;;;;;;4.63;3.37;;;20.40;1.00;;;;;;5082233;28;20466;-78
2021/09/14 03:16:19;;;;;;;3.17;2.87;;;20.30;1.00;;;;;;5068246;28;20859;-78
2021/09/14 03:18:47;;;;;;;3.00;2.70;;;20.30;1.00;;;;;;5050942;28;20463;-78
2021/09/14 03:21:16;;;;;;;3.87;3.10;;;20.30;1.00;;;;;;5053192;28;20459;-77
2021/09/14 03:23:44;;;;;;;6.97;2.93;;;20.30;1.00;;;;;;5041240;28;20514;-77
2021/09/14 03:26:12;;;;;;;3.93;3.43;;;20.30;1.00;;;;;;5048567;28;20448;-78
2021/09/14 03:28:40;;;;;;;2.83;2.63;;;20.30;1.00;;;;;;5045940;28;21060;-77
2021/09/14 03:31:08;;;;;;;3.63;3.00;;;20.20;1.00;;;;;;5053093;28;20459;-78
2021/09/14 03:33:39;;;;;;;3.90;3.60;;;20.30;1.00;;;;;;5047177;28;20479;-76
2021/09/14 03:36:07;;;;;;;3.60;3.37;;;20.30;1.00;;;;;;5039377;28;20510;-77
2021/09/14 03:38:35;;;;;;;2.93;2.73;;;20.30;1.00;;;;;;5048310;28;20446;-78
2021/09/14 03:41:05;;;;;;;3.77;3.47;;;20.30;1.00;;;;;;5053442;28;20452;-76
2021/09/14 03:43:33;;;;;;;3.13;2.93;;;20.30;1.00;;;;;;5059482;28;20479;-78
2021/09/14 03:46:01;;;;;;;4.60;3.93;;;20.20;1.00;;;;;;5047794;28;20464;-79
2021/09/14 03:48:30;;;;;;;3.80;3.50;;;20.20;1.00;;;;;;5044967;28;20515;-78
2021/09/14 03:50:59;;;;;;;3.50;3.30;;;20.20;1.00;;;;;;5039551;28;20444;-78
2021/09/14 03:53:27;;;;;;;3.97;3.50;;;20.20;1.00;;;;;;5044487;28;20499;-79
2021/09/14 03:55:55;;;;;;;3.97;3.63;;;20.20;1.00;;;;;;5052687;28;20451;-79
2021/09/14 03:58:24;;;;;;;3.97;3.67;;;20.10;1.00;;;;;;5042694;28;20856;-75
2021/09/14 04:00:53;;;;;;;3.97;3.67;;;20.10;1.00;;;;;;5040260;28;20439;-78
2021/09/14 04:03:26;;;;;;;4.87;3.80;;;20.20;1.00;;;;;;5051583;28;20467;-77
2021/09/14 04:06:08;;;;;;;4.47;4.07;;;20.20;1.00;;;;;;5041040;28;20462;-78
2021/09/14 04:08:51;;;;;;;4.00;3.57;;;20.20;1.00;;;;;;5042171;28;20484;-79
2021/09/14 04:11:21;;;;;;;6.60;4.67;;;20.20;1.00;;;;;;5057318;28;20544;-78
2021/09/14 04:13:49;;;;;;;4.23;3.80;;;20.20;1.00;;;;;;5045727;28;20480;-78
2021/09/14 04:16:18;;;;;;;5.43;4.07;;;20.20;1.00;;;;;;5039268;28;20839;-79
2021/09/14 04:18:46;;;;;;;5.87;4.13;;;20.20;1.00;;;;;;5053113;28;20439;-80
2021/09/14 04:21:15;;;;;;;3.90;3.60;;;20.20;1.00;;;;;;5047491;28;20999;-79
2021/09/14 04:23:45;;;;;;;3.70;3.43;;;20.20;1.00;;;;;;5040167;28;20749;-79
2021/09/14 04:26:13;;;;;;;4.50;4.10;;;20.30;1.00;;;;;;5049663;28;20520;-78
2021/09/14 04:28:41;;;;;;;4.00;3.80;;;20.30;1.00;;;;;;5062059;28;20854;-76
2021/09/14 04:31:09;;;;;;;4.37;4.00;;;20.20;1.00;;;;;;5065537;28;20443;-78
2021/09/14 04:33:38;;;;;;;4.73;4.33;;;20.20;1.00;;;;;;5047776;28;20816;-77
2021/09/14 04:36:06;;;;;;;3.90;3.60;;;20.30;1.00;;;;;;5045319;28;20463;-81
2021/09/14 04:38:36;;;;;;;3.90;3.60;;;20.30;1.00;;;;;;5054603;28;20459;-82
2021/09/14 04:41:05;;;;;;;4.07;3.67;;;20.10;1.00;;;;;;5052857;28;20448;-80
2021/09/14 04:43:33;;;;;;;4.33;4.03;;;20.10;1.00;;;;;;5051046;28;20468;-79
2021/09/14 04:46:03;;;;;;;4.60;4.20;;;20.00;13.00;;;;;;5046102;28;20455;-80
2021/09/14 04:48:31;;;;;;;5.93;5.30;;;19.80;99.90;;;;;;5056514;28;20480;-77
2021/09/14 04:50:59;;;;;;;3.80;3.50;;;19.90;99.90;;;;;;5060684;28;21028;-79
2021/09/14 04:53:27;;;;;;;5.37;4.20;;;20.00;25.80;;;;;;5041665;28;20538;-77
2021/09/14 04:55:55;;;;;;;4.27;3.87;;;20.00;1.00;;;;;;5049732;28;20462;-79
2021/09/14 04:58:25;;;;;;;4.30;3.90;;;20.10;1.00;;;;;;5043434;28;21077;-78
2021/09/14 05:00:53;;;;;;;4.40;4.00;;;20.10;1.00;;;;;;5032600;28;20456;-78
2021/09/14 05:03:21;;;;;;;4.67;4.10;;;20.10;1.00;;;;;;5038967;28;20512;-79
2021/09/14 05:05:49;;;;;;;4.40;4.10;;;20.10;22.80;;;;;;5048197;28;20587;-79
2021/09/14 05:08:18;;;;;;;5.30;4.50;;;20.20;29.80;;;;;;5048171;28;20528;-78
2021/09/14 05:10:46;;;;;;;4.23;3.93;;;20.10;5.90;;;;;;5056881;28;20460;-78
2021/09/14 05:13:14;;;;;;;4.47;4.07;;;20.20;1.00;;;;;;5059446;28;20470;-78
2021/09/14 05:15:43;;;;;;;4.30;3.90;;;20.00;12.10;;;;;;5045378;28;20502;-78
2021/09/14 05:18:12;;;;;;;5.78;5.18;;;20.00;1.00;;;;;;5057772;28;20453;-79
2021/09/14 05:20:41;;;;;;;5.20;4.80;;;20.10;7.30;;;;;;5044944;28;20196;-76
2021/09/14 05:23:13;;;;;;;4.50;4.17;;;20.10;1.00;;;;;;5038001;28;20497;-76
2021/09/14 05:25:43;;;;;;;4.13;3.63;;;20.10;1.00;;;;;;5043628;28;20491;-78
2021/09/14 05:28:13;;;;;;;4.17;3.87;;;20.10;1.00;;;;;;5034019;28;20451;-79
2021/09/14 05:30:44;;;;;;;4.40;3.90;;;20.10;1.00;;;;;;5033473;28;20491;-78
2021/09/14 05:33:12;;;;;;;7.03;5.17;;;20.10;1.00;;;;;;5032587;28;20515;-79
2021/09/14 05:35:45;;;;;;;4.70;4.30;;;20.10;1.00;;;;;;5044785;28;20455;-79
2021/09/14 05:38:13;;;;;;;4.07;3.87;;;20.10;1.00;;;;;;5041174;28;20482;-79
2021/09/14 05:40:42;;;;;;;4.50;4.10;;;20.20;1.00;;;;;;5041188;28;20461;-77
2021/09/14 05:43:10;;;;;;;4.83;4.30;;;20.20;1.00;;;;;;5039382;28;20471;-81
2021/09/14 05:45:39;;;;;;;6.67;4.50;;;20.20;1.00;;;;;;5036711;28;20440;-78
2021/09/14 05:48:08;;;;;;;4.10;3.77;;;20.20;1.00;;;;;;5046361;28;20838;-78
2021/09/14 05:50:36;;;;;;;4.43;4.13;;;20.30;1.00;;;;;;5041378;28;20483;-80
2021/09/14 05:53:05;;;;;;;4.70;4.30;;;20.30;2.90;;;;;;5042282;28;20478;-80
2021/09/14 05:55:35;;;;;;;5.70;4.30;;;20.30;1.00;;;;;;5036043;28;20479;-79
2021/09/14 05:58:03;;;;;;;4.43;4.03;;;20.30;1.00;;;;;;5031008;28;20798;-79
2021/09/14 06:00:32;;;;;;;4.00;3.70;;;20.30;1.00;;;;;;5035753;28;20452;-79
2021/09/14 06:03:00;;;;;;;4.50;4.10;;;20.30;8.40;;;;;;5050014;28;20471;-79
2021/09/14 06:05:30;;;;;;;4.67;4.20;;;20.30;18.80;;;;;;5040958;28;20456;-78
2021/09/14 06:07:58;;;;;;;4.73;4.30;;;20.40;6.60;;;;;;5035567;28;20463;-79
2021/09/14 06:10:26;;;;;;;6.93;4.07;;;20.40;57.40;;;;;;5039165;28;20521;-78
2021/09/14 06:12:54;;;;;;;4.60;4.20;;;20.50;23.90;;;;;;5038083;28;20472;-77
2021/09/14 06:15:22;;;;;;;4.13;3.83;;;20.40;99.90;;;;;;5036009;28;20451;-78
2021/09/14 06:17:50;;;;;;;5.90;4.37;;;20.50;24.40;;;;;;5034196;28;21007;-78
2021/09/14 06:20:19;;;;;;;3.80;3.50;;;20.50;49.70;;;;;;5042610;28;20483;-78
2021/09/14 06:22:48;;;;;;;4.23;3.83;;;20.60;99.90;;;;;;5037464;28;20485;-79
2021/09/14 06:25:16;;;;;;;4.17;3.87;;;20.60;99.90;;;;;;5036778;28;20448;-79
2021/09/14 06:27:44;;;;;;;4.20;3.90;;;20.60;99.90;;;;;;5039968;28;20455;-79
2021/09/14 06:30:13;;;;;;;5.57;4.30;;;20.70;61.00;;;;;;5038945;28;20557;-80
2021/09/14 06:32:41;;;;;;;5.50;4.77;;;20.80;99.90;;;;;;5041838;28;20488;-79
2021/09/14 06:35:10;;;;;;;4.23;3.77;;;20.80;1.00;;;;;;5037674;28;20488;-79
2021/09/14 06:37:38;;;;;;;6.53;3.93;;;20.80;1.00;;;;;;5045423;28;20451;-81
2021/09/14 06:40:08;;;;;;;4.40;3.70;;;20.90;1.00;;;;;;5037214;28;20494;-80
2021/09/14 06:42:36;;;;;;;4.87;4.47;;;21.00;1.00;;;;;;5039854;28;20480;-81
2021/09/14 06:45:06;;;;;;;4.40;4.10;;;21.10;1.00;;;;;;5041094;28;20455;-77
2021/09/14 06:47:34;;;;;;;4.13;3.80;;;21.10;1.00;;;;;;5050079;28;20990;-78
2021/09/14 06:50:02;;;;;;;4.53;3.90;;;21.20;1.00;;;;;;5035716;28;20830;-79
2021/09/14 06:52:38;;;;;;;4.87;4.37;;;21.20;1.00;;;;;;5031056;28;20478;-78
2021/09/14 06:55:09;;;;;;;5.40;3.87;;;21.20;1.00;;;;;;5046609;28;20463;-79
2021/09/14 06:57:37;;;;;;;5.50;4.80;;;21.30;1.00;;;;;;5052943;28;20460;-79
2021/09/14 07:00:06;;;;;;;6.53;4.07;;;21.30;1.00;;;;;;5038763;28;20817;-76
2021/09/14 07:02:35;;;;;;;4.90;4.10;;;21.40;1.00;;;;;;5049429;28;20486;-81
2021/09/14 07:05:05;;;;;;;6.50;4.20;;;21.40;1.00;;;;;;5034427;28;20931;-79
2021/09/14 07:07:34;;;;;;;4.50;4.00;;;21.40;1.00;;;;;;5051996;28;20455;-78
2021/09/14 07:10:04;;;;;;;4.63;4.10;;;21.50;1.00;;;;;;5050969;28;20512;-79
2021/09/14 07:12:34;;;;;;;4.37;3.97;;;21.50;1.00;;;;;;5051006;28;20476;-78
2021/09/14 07:15:03;;;;;;;6.10;4.07;;;21.50;1.00;;;;;;5040931;28;20845;-79
2021/09/14 07:17:32;;;;;;;3.90;3.60;;;21.60;1.00;;;;;;5047383;28;20539;-79
2021/09/14 07:20:00;;;;;;;3.70;3.40;;;21.60;1.00;;;;;;5052897;28;20506;-80
2021/09/14 07:22:33;;;;;;;3.70;3.40;;;21.70;1.00;;;;;;5049245;28;20811;-79
2021/09/14 07:25:01;;;;;;;4.20;3.63;;;21.70;1.00;;;;;;5052872;28;20453;-79
2021/09/14 07:27:29;;;;;;;5.60;4.13;;;21.80;1.00;;;;;;5042183;28;20444;-80
2021/09/14 07:29:59;;;;;;;3.67;3.37;;;21.80;1.00;;;;;;5033368;28;20597;-81
2021/09/14 07:32:27;;;;;;;3.97;3.57;;;21.80;1.00;;;;;;5033795;28;20483;-79
2021/09/14 07:34:55;;;;;;;4.17;3.70;;;21.80;1.00;;;;;;5045479;28;20504;-78
2021/09/14 07:37:23;;;;;;;4.93;3.50;;;21.80;1.00;;;;;;5048388;28;20461;-77
2021/09/14 07:39:51;;;;;;;3.87;3.57;;;21.80;1.00;;;;;;5046795;28;21137;-78
2021/09/14 07:42:20;;;;;;;3.40;3.20;;;21.90;1.00;;;;;;5040495;28;20533;-79
2021/09/14 07:44:49;;;;;;;3.83;3.53;;;21.90;1.00;;;;;;5033704;28;20463;-79
2021/09/14 07:47:19;;;;;;;3.77;3.47;;;21.90;1.00;;;;;;5049401;28;20459;-79
2021/09/14 07:49:47;;;;;;;3.63;3.33;;;22.10;1.00;;;;;;5036055;28;20476;-78
2021/09/14 07:52:15;;;;;;;3.30;3.10;;;22.30;1.00;;;;;;5043279;28;20993;-77
2021/09/14 07:54:43;;;;;;;3.93;3.10;;;22.50;1.00;;;;;;5053871;28;20452;-80
2021/09/14 07:57:11;;;;;;;5.73;3.87;;;22.80;1.00;;;;;;5052453;28;20475;-80
2021/09/14 07:59:39;;;;;;;4.70;3.40;;;22.90;1.00;;;;;;5053834;28;20481;-79
2021/09/14 08:02:08;;;;;;;4.17;3.57;;;23.10;1.00;;;;;;5047669;28;20528;-79
2021/09/14 08:04:38;;;;;;;3.03;2.83;;;23.30;1.00;;;;;;5045569;28;20456;-78
2021/09/14 08:07:06;;;;;;;3.90;3.00;;;23.40;1.00;;;;;;5033948;28;20479;-79
2021/09/14 08:09:34;;;;;;;3.83;3.53;;;23.60;99.90;;;;;;5046211;28;20456;-79
2021/09/14 08:12:03;;;;;;;3.77;2.97;;;23.70;99.90;;;;;;5047909;28;20529;-79
2021/09/14 08:14:31;;;;;;;3.50;3.20;;;23.90;99.90;;;;;;5041222;28;20978;-80
2021/09/14 08:16:59;;;;;;;3.67;3.27;;;23.80;99.90;;;;;;5043395;28;20463;-79
2021/09/14 08:19:28;;;;;;;3.50;3.20;;;23.80;99.90;;;;;;5050405;28;20444;-79
2021/09/14 08:21:58;;;;;;;4.30;3.93;;;23.90;99.90;;;;;;5050553;28;20456;-77
2021/09/14 08:24:26;;;;;;;3.23;2.93;;;23.90;99.90;;;;;;5045443;28;20522;-79
2021/09/14 08:26:54;;;;;;;4.30;3.80;;;24.00;99.90;;;;;;5051482;28;20474;-78
2021/09/14 08:29:22;;;;;;;4.17;3.83;;;24.00;99.90;;;;;;5035626;28;20952;-77
2021/09/14 08:31:50;;;;;;;4.20;3.80;;;23.90;99.90;;;;;;5050569;28;20999;-78
2021/09/14 08:34:18;;;;;;;3.90;3.60;;;24.00;99.90;;;;;;5047620;28;20445;-78
2021/09/14 08:36:46;;;;;;;3.90;3.60;;;24.00;99.90;;;;;;5046002;28;20881;-79
2021/09/14 08:39:16;;;;;;;3.63;3.33;;;24.00;99.90;;;;;;5039905;28;20452;-80
2021/09/14 08:41:45;;;;;;;3.20;3.00;;;24.10;99.90;;;;;;5042172;28;20546;-81
2021/09/14 08:44:13;;;;;;;3.00;2.80;;;24.20;99.90;;;;;;5034017;28;20457;-79
2021/09/14 08:46:43;;;;;;;4.07;3.30;;;24.20;99.90;;;;;;5048089;28;20448;-79
2021/09/14 08:49:14;;;;;;;3.83;3.53;;;24.30;99.90;;;;;;5048966;28;20901;-78
2021/09/14 08:51:43;;;;;;;4.13;3.67;;;24.30;99.90;;;;;;5045365;28;20492;-79
2021/09/14 08:54:12;;;;;;;3.97;3.67;;;24.30;99.90;;;;;;5047217;28;20452;-79
2021/09/14 08:56:41;;;;;;;3.13;2.90;;;24.30;99.90;;;;;;5039426;28;20531;-77
2021/09/14 08:59:09;;;;;;;3.60;3.30;;;24.40;99.90;;;;;;5038857;28;20441;-78
2021/09/14 09:01:37;;;;;;;3.57;3.23;;;24.40;99.90;;;;;;5045114;28;20812;-80
2021/09/14 09:04:08;;;;;;;3.67;3.30;;;24.40;99.90;;;;;;5048992;28;20490;-80
2021/09/14 09:06:39;;;;;;;3.60;3.30;;;24.40;99.90;;;;;;5049875;28;20451;-80
2021/09/14 09:09:12;;;;;;;3.60;3.30;;;24.40;99.90;;;;;;5039321;28;20448;-77
2021/09/14 09:11:53;;;;;;;3.90;3.60;;;24.30;99.90;;;;;;5049883;28;20491;-80
2021/09/14 09:14:38;;;;;;;4.13;3.50;;;24.40;99.90;;;;;;5040334;28;20517;-79
2021/09/14 09:17:08;;;;;;;5.07;3.20;;;24.60;99.90;;;;;;5046100;28;20471;-80
2021/09/14 09:19:37;;;;;;;3.90;3.63;;;24.70;99.90;;;;;;5048044;28;20462;-79
2021/09/14 09:22:10;;;;;;;5.87;3.50;;;24.70;99.90;;;;;;5043820;28;22322;-79
2021/09/14 09:24:46;;;;;;;3.77;3.20;;;24.80;99.90;;;;;;5043518;28;20467;-79
2021/09/14 09:27:17;;;;;;;3.57;3.27;;;24.80;99.90;;;;;;5051013;28;20516;-79
2021/09/14 09:29:56;;;;;;;5.60;4.80;;;24.80;99.90;;;;;;5043279;28;20464;-77
2021/09/14 09:32:25;;;;;;;3.47;3.17;;;24.90;99.90;;;;;;5045602;28;20513;-78
2021/09/14 09:34:57;;;;;;;3.63;3.30;;;25.00;99.90;;;;;;5045799;28;20476;-78
2021/09/14 09:37:26;;;;;;;4.90;3.43;;;24.90;99.90;;;;;;5036886;28;20448;-80
2021/09/14 09:39:54;;;;;;;3.27;2.97;;;25.00;99.90;;;;;;5035345;28;20817;-80
2021/09/14 09:42:23;;;;;;;3.13;2.70;;;25.00;99.90;;;;;;5040615;28;20467;-77
2021/09/14 09:44:57;;;;;;;3.57;3.37;;;25.00;99.90;;;;;;5044492;28;20459;-80
2021/09/14 09:47:25;;;;;;;3.43;3.13;;;25.20;99.90;;;;;;5044057;28;20482;-80
2021/09/14 09:49:55;;;;;;;3.50;3.30;;;25.30;99.90;;;;;;5031226;28;20456;-78
2021/09/14 09:55:02;;;;;;;5.53;3.47;;;25.50;99.90;;;;;;5004054;28;20982;-77
2021/09/14 09:57:32;;;;;;;3.37;3.10;;;25.50;99.90;;;;;;5008454;28;20469;-77
2021/09/14 10:00:00;;;;;;;3.77;3.37;;;25.50;99.90;;;;;;5000570;28;20449;-80
2021/09/14 10:02:29;;;;;;;3.90;3.50;;;25.50;99.90;;;;;;5007674;28;20475;-79
2021/09/14 10:05:01;;;;;;;3.70;3.40;;;25.60;99.90;;;;;;5008653;28;20476;-77
2021/09/14 10:07:31;;;;;;;3.00;2.80;;;25.70;99.90;;;;;;5007154;28;20539;-77
2021/09/14 10:10:01;;;;;;;3.80;3.47;;;25.80;99.90;;;;;;5007293;28;20437;-77
2021/09/14 10:12:32;;;;;;;3.97;3.67;;;25.80;99.90;;;;;;5007415;28;20473;-77
2021/09/14 10:15:03;;;;;;;3.40;3.20;;;25.90;99.90;;;;;;5007126;28;20461;-81
2021/09/14 10:17:33;;;;;;;3.40;3.10;;;25.90;99.90;;;;;;5006307;28;20949;-78
2021/09/14 10:20:11;;;;;;;3.27;2.97;;;26.00;99.90;;;;;;5005906;28;20445;-79
2021/09/14 10:22:39;;;;;;;3.60;3.40;;;26.10;99.90;;;;;;4998516;28;21007;-78
2021/09/14 10:25:11;;;;;;;3.60;3.30;;;26.20;99.90;;;;;;5005842;28;20461;-80
2021/09/14 10:27:43;;;;;;;4.13;3.83;;;26.30;99.90;;;;;;5007787;28;20457;-79
2021/09/14 10:30:14;;;;;;;3.50;3.20;;;26.30;99.90;;;;;;5008031;28;20465;-79
2021/09/14 10:32:44;;;;;;;3.53;3.33;;;26.40;99.90;;;;;;5016484;28;20483;-77
2021/09/14 10:35:24;;;;;;;3.93;3.37;;;26.30;99.90;;;;;;5029774;28;20471;-77
2021/09/14 10:37:53;;;;;;;3.33;2.83;;;26.20;99.90;;;;;;5024730;28;20956;-77
2021/09/14 10:40:23;;;;;;;3.63;3.33;;;26.30;99.90;;;;;;5026064;28;20919;-81
2021/09/14 10:42:59;;;;;;;3.47;3.17;;;26.40;99.90;;;;;;5009640;28;20530;-77
2021/09/14 10:45:27;;;;;;;4.53;3.97;;;26.50;99.90;;;;;;5002886;28;20783;-76
2021/09/14 10:47:55;;;;;;;3.73;3.00;;;26.60;99.90;;;;;;4995519;28;21150;-79
2021/09/14 10:50:28;;;;;;;3.03;2.83;;;26.60;99.90;;;;;;5009069;28;20462;-77
2021/09/14 10:52:59;;;;;;;3.67;3.30;;;26.70;99.90;;;;;;5012286;28;20492;-80
2021/09/14 10:55:27;;;;;;;4.80;3.77;;;26.80;99.90;;;;;;5014710;28;20964;-76
2021/09/14 10:58:00;;;;;;;3.70;3.40;;;26.80;99.90;;;;;;5012005;28;20457;-79
2021/09/14 11:00:31;;;;;;;4.07;3.60;;;26.90;99.90;;;;;;5006540;28;20873;-78
2021/09/14 11:03:01;;;;;;;3.30;3.00;;;26.90;99.90;;;;;;5012083;28;20469;-77
2021/09/14 11:05:30;;;;;;;3.70;3.40;;;26.90;99.90;;;;;;5010910;28;20446;-78
2021/09/14 11:07:59;;;;;;;3.13;2.83;;;26.80;99.90;;;;;;5011053;28;20928;-80
2021/09/14 11:10:34;;;;;;;3.27;3.07;;;26.70;99.90;;;;;;5007571;28;20453;-78
2021/09/14 11:13:04;;;;;;;4.50;3.23;;;26.70;99.90;;;;;;5008321;28;20488;-79
2021/09/14 11:15:33;;;;;;;3.47;3.13;;;26.80;99.90;;;;;;5010661;28;20556;-80
2021/09/14 11:18:04;;;;;;;3.00;2.80;;;26.80;99.90;;;;;;5009601;28;20457;-78
2021/09/14 11:20:32;;;;;;;5.47;3.93;;;26.90;99.90;;;;;;5022960;28;20465;-77
2021/09/14 11:23:01;;;;;;;3.50;3.20;;;26.90;99.90;;;;;;5014531;28;20524;-78
2021/09/14 11:25:30;;;;;;;4.00;3.70;;;26.90;99.90;;;;;;5011400;28;20522;-81
2021/09/14 11:28:00;;;;;;;3.17;2.90;;;26.90;99.90;;;;;;5012061;28;20453;-75
2021/09/14 11:30:35;;;;;;;4.60;4.20;;;26.80;99.90;;;;;;5008789;28;20503;-75
2021/09/14 11:33:04;;;;;;;4.80;4.40;;;26.80;99.90;;;;;;5027161;28;20538;-78
2021/09/14 11:35:36;;;;;;;4.33;4.00;;;26.70;99.90;;;;;;5012909;28;20798;-76
2021/09/14 11:38:06;;;;;;;4.57;4.13;;;26.70;99.90;;;;;;5011385;28;20480;-73
2021/09/14 11:40:44;;;;;;;4.07;3.67;;;26.70;99.90;;;;;;5008170;28;20453;-76
2021/09/14 11:43:17;;;;;;;4.37;3.67;;;26.70;99.90;;;;;;5013759;28;21015;-75
2021/09/14 11:45:47;;;;;;;5.47;3.20;;;26.70;99.90;;;;;;5009981;28;20519;-77
2021/09/14 11:48:22;;;;;;;3.80;3.53;;;26.70;99.90;;;;;;5011891;28;20467;-78
2021/09/14 11:51:02;;;;;;;3.80;3.40;;;26.60;99.90;;;;;;5012870;28;20452;-77
2021/09/14 11:53:30;;;;;;;4.03;3.73;;;26.60;99.90;;;;;;5027280;28;20484;-78
2021/09/14 11:55:58;;;;;;;3.40;3.20;;;26.50;99.90;;;;;;5009107;28;20503;-78
2021/09/14 11:58:32;;;;;;;4.03;3.63;;;26.50;99.90;;;;;;5005808;28;20488;-79
2021/09/14 12:01:07;;;;;;;3.40;3.20;;;26.60;99.90;;;;;;5008783;28;20461;-80
2021/09/14 12:03:37;;;;;;;5.93;3.80;;;26.60;99.90;;;;;;5015293;28;20515;-74
2021/09/14 12:06:06;;;;;;;3.20;3.00;;;26.40;99.90;;;;;;5016467;28;20453;-78
2021/09/14 12:08:35;;;;;;;3.70;3.33;;;26.40;99.90;;;;;;5014898;28;20468;-78
2021/09/14 12:11:04;;;;;;;3.30;2.90;;;26.50;99.90;;;;;;5010249;28;20453;-77
2021/09/14 12:13:41;;;;;;;3.53;3.30;;;26.50;99.90;;;;;;5011932;28;20995;-77
2021/09/14 12:16:14;;;;;;;3.83;3.10;;;26.50;99.90;;;;;;5005738;28;20494;-76
2021/09/14 12:18:45;;;;;;;2.97;2.77;;;26.50;99.90;;;;;;5009931;28;20456;-78
2021/09/14 12:21:13;;;;;;;2.90;2.70;;;26.60;99.90;;;;;;5009775;28;20469;-78
2021/09/14 12:23:41;;;;;;;3.40;3.07;;;26.50;99.90;;;;;;5020016;28;20482;-79
2021/09/14 12:26:18;;;;;;;2.80;2.53;;;26.60;99.90;;;;;;5004152;28;20484;-75
2021/09/14 12:28:46;;;;;;;3.13;2.73;;;26.60;99.90;;;;;;5004136;28;20489;-78
2021/09/14 12:31:16;;;;;;;3.27;2.97;;;26.80;99.90;;;;;;5008763;28;20488;-80
2021/09/14 12:33:44;;;;;;;3.93;3.53;;;26.80;99.90;;;;;;5007260;28;21044;-80
2021/09/14 12:36:13;;;;;;;4.17;3.77;;;26.90;99.90;;;;;;5003586;28;20508;-84
2021/09/14 12:38:41;;;;;;;3.80;2.57;;;26.90;99.90;;;;;;5005923;28;20465;-77
2021/09/14 12:41:09;;;;;;;3.30;3.10;;;26.90;99.90;;;;;;5001381;28;20507;-79
2021/09/14 12:43:38;;;;;;;3.03;2.80;;;26.90;99.90;;;;;;5009097;28;20469;-77
2021/09/14 12:46:06;;;;;;;2.87;2.67;;;27.00;99.90;;;;;;5009500;28;20801;-75
2021/09/14 12:48:35;;;;;;;3.40;3.20;;;26.90;99.90;;;;;;5009010;28;20458;-79
2021/09/14 12:51:05;;;;;;;3.30;3.10;;;26.90;99.90;;;;;;5005377;28;20461;-82
2021/09/14 12:53:33;;;;;;;3.50;3.20;;;27.00;99.90;;;;;;5013243;28;20543;-78
2021/09/14 12:56:01;;;;;;;3.97;3.60;;;27.00;99.90;;;;;;5007884;28;20449;-78
2021/09/14 12:58:44;;;;;;;3.70;3.40;;;27.20;99.90;;;;;;5009610;28;20544;-76
2021/09/14 13:01:12;;;;;;;3.90;3.50;;;27.30;99.90;;;;;;5006976;28;20466;-79
2021/09/14 13:03:42;;;;;;;4.27;3.97;;;27.30;99.90;;;;;;5009152;28;20465;-79
2021/09/14 13:06:11;;;;;;;4.20;3.80;;;27.30;99.90;;;;;;5006622;28;20851;-82
2021/09/14 13:08:40;;;;;;;5.50;3.53;;;27.30;99.90;;;;;;5009084;28;20453;-78
2021/09/14 13:11:08;;;;;;;3.47;3.10;;;27.20;99.90;;;;;;5009212;28;20464;-80
2021/09/14 13:16:21;;;;;;;4.50;3.80;;;27.20;99.90;;;;;;5003857;28;20487;-80
2021/09/14 13:18:52;;;;;;;5.27;3.90;;;27.20;99.90;;;;;;5008197;28;20446;-79
2021/09/14 13:21:22;;;;;;;6.53;3.77;;;27.10;99.90;;;;;;5004096;28;20968;-83
2021/09/14 13:23:51;;;;;;;4.83;3.70;;;27.20;99.90;;;;;;4998779;28;20474;-82
2021/09/14 13:26:20;;;;;;;3.40;3.10;;;27.20;99.90;;;;;;5003892;28;20449;-81
2021/09/14 13:28:49;;;;;;;5.00;4.20;;;27.20;99.90;;;;;;5012931;28;20464;-78
2021/09/14 13:31:17;;;;;;;5.23;3.80;;;27.20;99.90;;;;;;5002601;28;20493;-84
2021/09/14 13:33:45;;;;;;;4.80;4.30;;;27.20;99.90;;;;;;5004967;28;20497;-82
2021/09/14 13:36:15;;;;;;;6.00;4.00;;;27.20;99.90;;;;;;5004997;28;20457;-78
2021/09/14 13:38:44;;;;;;;3.50;3.20;;;27.30;99.90;;;;;;5007739;28;20501;-78
2021/09/14 13:41:14;;;;;;;4.10;3.70;;;27.30;99.90;;;;;;5023506;28;20460;-75
2021/09/14 13:43:53;;;;;;;5.97;3.70;;;27.30;99.90;;;;;;5003236;28;20474;-77
2021/09/14 13:46:20;;;;;;;4.80;3.63;;;27.30;99.90;;;;;;5009083;28;20461;-81
2021/09/14 13:48:49;;;;;;;4.33;4.03;;;27.30;99.90;;;;;;5004012;28;20858;-75
2021/09/14 13:51:21;;;;;;;4.23;3.93;;;27.30;99.90;;;;;;5006629;28;20452;-79
2021/09/14 13:53:51;;;;;;;4.03;3.43;;;27.20;99.90;;;;;;5011190;28;20737;-80
2021/09/14 13:56:20;;;;;;;3.80;3.60;;;27.30;99.90;;;;;;5011632;28;20992;-79
2021/09/14 13:58:49;;;;;;;8.90;4.10;;;27.20;99.90;;;;;;5015802;28;20455;-76